Time;durP1;ratioP1;P1;durP2;ratioP2;P2;SDS_P1;SDS_P2;PMS_P1;PMS_P2;Temp;Humidity;BMP_temperature;BMP_pressure;BME280_temperature;BME280_humidity;BME280_pressure;Samples;Min_cycle;Max_cycle;Signal;HPM_P1;HPM_P2
2022/09/07 00:01:07;;;;;;;2.23;1.40;;;20.40;99.90;;;;;;5117340;28;20524;-53
2022/09/07 00:03:35;;;;;;;2.77;1.63;;;20.20;99.90;;;;;;5117299;28;20571;-60
2022/09/07 00:06:11;;;;;;;1.47;1.27;;;20.10;99.90;;;;;;5125521;28;20456;-56
2022/09/07 00:08:39;;;;;;;1.97;1.40;;;20.00;99.90;;;;;;5136034;28;20524;-58
2022/09/07 00:11:11;;;;;;;1.70;1.53;;;20.00;99.90;;;;;;5135687;27;20459;-55
2022/09/07 00:13:40;;;;;;;1.77;1.40;;;19.90;99.90;;;;;;5137814;27;20831;-51
2022/09/07 00:16:10;;;;;;;3.23;1.43;;;19.80;99.90;;;;;;5136061;28;20581;-56
2022/09/07 00:18:38;;;;;;;1.40;1.30;;;19.80;99.90;;;;;;5137914;28;20482;-55
2022/09/07 00:21:17;;;;;;;1.80;1.43;;;19.70;99.90;;;;;;5135819;28;20508;-57
2022/09/07 00:23:49;;;;;;;2.43;1.60;;;19.70;99.90;;;;;;5138222;27;20557;-60
2022/09/07 00:26:18;;;;;;;1.60;1.50;;;19.80;99.90;;;;;;5135282;27;20897;-59
2022/09/07 00:28:46;;;;;;;2.23;1.20;;;19.80;99.90;;;;;;5135831;27;20476;-53
2022/09/07 00:31:15;;;;;;;2.40;1.40;;;19.70;99.90;;;;;;5137963;28;20549;-58
2022/09/07 00:33:47;;;;;;;2.07;1.40;;;19.60;99.90;;;;;;5136699;28;20661;-56
2022/09/07 00:36:19;;;;;;;1.90;1.33;;;19.60;99.90;;;;;;5138317;28;20430;-55
2022/09/07 00:38:49;;;;;;;1.50;1.40;;;19.40;99.90;;;;;;5135767;27;20474;-54
2022/09/07 00:41:22;;;;;;;2.03;1.43;;;19.20;99.90;;;;;;5135988;28;20486;-57
2022/09/07 00:43:54;;;;;;;2.17;1.53;;;18.90;99.90;;;;;;5137156;27;20447;-58
2022/09/07 00:46:23;;;;;;;1.93;1.60;;;18.70;99.90;;;;;;5137670;27;20477;-59
2022/09/07 00:48:55;;;;;;;3.23;1.80;;;18.60;99.90;;;;;;5135259;28;20490;-66
2022/09/07 00:51:27;;;;;;;1.90;1.50;;;18.60;1.00;;;;;;5136155;27;20504;-64
2022/09/07 00:53:58;;;;;;;1.90;1.57;;;18.50;1.00;;;;;;5141213;27;20555;-64
2022/09/07 00:56:28;;;;;;;1.77;1.30;;;18.40;1.00;;;;;;5140849;27;21722;-64
2022/09/07 00:58:57;;;;;;;4.20;2.10;;;18.40;1.00;;;;;;5138579;27;20484;-64
2022/09/07 01:01:25;;;;;;;1.90;1.50;;;18.40;1.00;;;;;;5123130;27;20471;-63
2022/09/07 01:03:55;;;;;;;3.70;1.80;;;18.40;1.00;;;;;;5120525;28;20435;-63
2022/09/07 01:06:27;;;;;;;4.70;1.70;;;18.30;1.00;;;;;;5119899;28;20482;-61
2022/09/07 01:08:57;;;;;;;2.97;1.70;;;18.30;1.00;;;;;;5121076;27;20913;-62
2022/09/07 01:11:25;;;;;;;4.17;1.80;;;18.30;1.00;;;;;;5121081;27;20764;-55
2022/09/07 01:13:54;;;;;;;4.20;1.77;;;18.30;1.00;;;;;;5120432;28;20540;-61
2022/09/07 01:16:33;;;;;;;4.20;2.10;;;18.20;1.00;;;;;;5120190;28;20906;-60
2022/09/07 01:19:27;;;;;;;3.90;1.67;;;18.20;1.00;;;;;;5120221;27;20459;-54
2022/09/07 01:22:10;;;;;;;4.30;1.70;;;18.20;12.70;;;;;;5120098;28;20426;-61
2022/09/07 01:25:00;;;;;;;3.23;1.77;;;18.30;99.90;;;;;;5119294;28;20433;-60
2022/09/07 01:28:01;;;;;;;2.80;1.60;;;18.40;99.90;;;;;;5120082;28;20546;-59
2022/09/07 01:30:37;;;;;;;3.37;1.90;;;18.50;99.90;;;;;;5133252;27;20518;-60
2022/09/07 01:33:30;;;;;;;5.50;1.90;;;18.40;99.90;;;;;;5138490;27;20458;-61
2022/09/07 01:36:12;;;;;;;2.10;1.50;;;18.50;99.90;;;;;;5138732;27;20863;-61
2022/09/07 01:38:47;;;;;;;4.10;1.87;;;18.50;99.90;;;;;;5140334;27;20455;-58
2022/09/07 01:41:22;;;;;;;2.60;1.53;;;18.50;99.90;;;;;;5139517;27;20454;-61
2022/09/07 01:43:59;;;;;;;3.73;2.00;;;18.40;99.90;;;;;;5140070;27;20989;-62
2022/09/07 01:46:29;;;;;;;2.60;1.90;;;18.30;99.90;;;;;;5134710;27;20810;-61
2022/09/07 01:49:03;;;;;;;2.63;1.57;;;18.30;99.90;;;;;;5119421;27;20459;-60
2022/09/07 01:51:42;;;;;;;3.00;2.00;;;18.20;99.90;;;;;;5119301;28;20429;-58
2022/09/07 01:54:17;;;;;;;2.73;1.80;;;18.20;99.90;;;;;;5119043;28;20843;-59
2022/09/07 01:56:50;;;;;;;2.63;1.80;;;18.20;99.90;;;;;;5122968;27;20454;-58
2022/09/07 01:59:24;;;;;;;2.33;1.80;;;18.20;1.00;;;;;;5138253;27;20455;-58
2022/09/07 02:02:01;;;;;;;2.43;2.13;;;18.20;1.00;;;;;;5136995;27;20454;-60
2022/09/07 02:04:34;;;;;;;2.53;2.33;;;18.10;1.00;;;;;;5139295;27;20458;-60
2022/09/07 02:07:10;;;;;;;2.17;1.63;;;18.10;1.00;;;;;;5135736;27;20438;-60
2022/09/07 02:09:43;;;;;;;2.23;1.80;;;18.00;1.00;;;;;;5119422;28;20491;-61
2022/09/07 02:12:19;;;;;;;2.30;1.70;;;17.90;99.90;;;;;;5119566;28;20538;-60
2022/09/07 02:14:58;;;;;;;2.80;1.90;;;17.90;99.90;;;;;;5118942;27;20469;-60
2022/09/07 02:17:31;;;;;;;1.97;1.53;;;18.00;99.90;;;;;;5119559;27;22122;-59
2022/09/07 02:20:09;;;;;;;2.87;1.80;;;18.00;99.90;;;;;;5120340;27;20488;-60
2022/09/07 02:22:42;;;;;;;2.70;1.80;;;17.90;1.00;;;;;;5118495;28;20459;-61
2022/09/07 02:25:13;;;;;;;2.17;1.80;;;18.00;1.00;;;;;;5118835;28;20434;-60
2022/09/07 02:27:46;;;;;;;3.23;1.93;;;18.00;99.90;;;;;;5118749;27;20552;-59
2022/09/07 02:30:16;;;;;;;2.70;2.10;;;18.00;99.90;;;;;;5118513;28;20434;-61
2022/09/07 02:32:44;;;;;;;3.57;2.10;;;18.00;1.00;;;;;;5122186;27;20758;-60
2022/09/07 02:35:12;;;;;;;2.37;2.17;;;18.00;1.00;;;;;;5137768;27;20548;-61
2022/09/07 02:37:41;;;;;;;2.50;1.87;;;17.90;99.90;;;;;;5137200;27;20742;-61
2022/09/07 02:40:10;;;;;;;2.40;2.20;;;17.80;1.00;;;;;;5139336;27;20490;-60
2022/09/07 02:42:38;;;;;;;2.63;1.60;;;17.80;1.00;;;;;;5138992;27;20956;-61
2022/09/07 02:45:09;;;;;;;2.37;1.97;;;17.70;99.90;;;;;;5119759;27;20435;-61
2022/09/07 02:47:48;;;;;;;1.97;1.77;;;17.70;99.90;;;;;;5117954;28;20555;-60
2022/09/07 02:50:39;;;;;;;2.67;2.20;;;17.60;1.00;;;;;;5118457;28;20459;-61
2022/09/07 02:53:22;;;;;;;2.20;1.80;;;17.60;1.00;;;;;;5117592;28;20456;-61
2022/09/07 02:56:00;;;;;;;2.30;1.50;;;17.60;1.00;;;;;;5135134;27;20940;-61
2022/09/07 02:58:35;;;;;;;2.60;1.67;;;17.50;1.00;;;;;;5138865;27;20508;-61
2022/09/07 03:01:09;;;;;;;2.50;2.10;;;17.40;1.00;;;;;;5138875;27;20472;-61
2022/09/07 03:03:46;;;;;;;2.57;1.90;;;17.40;99.90;;;;;;5138497;27;20515;-61
2022/09/07 03:06:19;;;;;;;1.80;1.43;;;17.50;99.90;;;;;;5137348;27;20520;-61
2022/09/07 03:08:55;;;;;;;3.60;2.13;;;17.40;31.30;;;;;;5136851;27;20429;-61
2022/09/07 03:11:23;;;;;;;3.67;1.87;;;17.50;97.40;;;;;;5138579;27;20465;-61
2022/09/07 03:13:50;;;;;;;2.50;1.97;;;17.40;1.00;;;;;;5137539;27;20520;-61
2022/09/07 03:16:18;;;;;;;2.70;2.20;;;17.40;1.00;;;;;;5136027;27;20514;-59
2022/09/07 03:18:46;;;;;;;2.90;2.33;;;17.30;1.00;;;;;;5138376;27;20458;-61
2022/09/07 03:21:16;;;;;;;2.57;2.03;;;17.30;1.90;;;;;;5138573;27;20434;-61
2022/09/07 03:23:46;;;;;;;2.33;1.80;;;17.30;99.90;;;;;;5138502;27;20937;-60
2022/09/07 03:26:24;;;;;;;2.30;2.00;;;17.30;99.90;;;;;;5124964;27;20430;-61
2022/09/07 03:28:52;;;;;;;2.40;2.10;;;17.30;99.90;;;;;;5118118;28;20433;-61
2022/09/07 03:31:21;;;;;;;3.43;2.20;;;17.20;64.20;;;;;;5118782;27;20512;-61
2022/09/07 03:33:54;;;;;;;2.50;2.30;;;17.20;99.90;;;;;;5117163;28;20773;-61
2022/09/07 03:36:21;;;;;;;3.37;2.90;;;17.20;99.90;;;;;;5127233;28;20461;-61
2022/09/07 03:38:49;;;;;;;2.87;2.47;;;17.20;29.90;;;;;;5124273;28;20750;-61
2022/09/07 03:41:17;;;;;;;3.47;2.40;;;17.20;99.90;;;;;;5117619;28;20462;-61
2022/09/07 03:43:44;;;;;;;4.60;2.10;;;17.30;99.90;;;;;;5117488;28;20470;-60
2022/09/07 03:46:18;;;;;;;2.40;2.00;;;17.30;32.90;;;;;;5118547;28;20457;-61
2022/09/07 03:48:46;;;;;;;3.33;1.97;;;17.30;1.00;;;;;;5117459;28;20738;-61
2022/09/07 03:51:18;;;;;;;2.70;1.90;;;17.30;1.00;;;;;;5117332;28;20507;-61
2022/09/07 03:53:46;;;;;;;2.80;1.93;;;17.30;1.00;;;;;;5132523;28;20512;-61
2022/09/07 03:56:18;;;;;;;3.57;2.00;;;17.20;1.00;;;;;;5135836;28;20530;-61
2022/09/07 03:58:47;;;;;;;4.50;2.60;;;17.20;29.70;;;;;;5136744;27;20454;-61
2022/09/07 04:01:17;;;;;;;3.80;2.77;;;17.00;1.00;;;;;;5133011;28;20547;-61
2022/09/07 04:03:45;;;;;;;2.90;2.30;;;17.00;1.00;;;;;;5136479;28;20469;-61
2022/09/07 04:06:18;;;;;;;3.33;2.70;;;16.90;1.00;;;;;;5127042;28;20881;-61
2022/09/07 04:08:46;;;;;;;3.17;2.80;;;16.80;99.90;;;;;;5133209;28;20778;-61
2022/09/07 04:11:17;;;;;;;3.57;2.70;;;16.70;99.90;;;;;;5131485;28;20479;-61
2022/09/07 04:13:45;;;;;;;3.17;2.40;;;16.80;99.90;;;;;;5136994;28;20463;-61
2022/09/07 04:16:15;;;;;;;5.40;2.63;;;16.80;99.90;;;;;;5127038;27;20523;-61
2022/09/07 04:18:46;;;;;;;3.97;2.23;;;16.70;99.90;;;;;;5129020;28;20556;-61
2022/09/07 04:21:18;;;;;;;4.10;2.80;;;16.70;99.90;;;;;;5137267;27;20438;-61
2022/09/07 04:23:45;;;;;;;5.00;2.60;;;16.70;99.90;;;;;;5134587;28;20466;-61
2022/09/07 04:26:15;;;;;;;4.20;2.87;;;16.70;99.90;;;;;;5138044;27;20486;-61
2022/09/07 04:28:46;;;;;;;3.77;2.60;;;16.70;99.90;;;;;;5138119;27;20433;-60
2022/09/07 04:31:14;;;;;;;3.10;2.47;;;16.60;99.90;;;;;;5128273;27;20465;-59
2022/09/07 04:33:42;;;;;;;3.00;2.70;;;16.70;99.90;;;;;;5119114;28;20442;-61
2022/09/07 04:36:09;;;;;;;2.93;2.40;;;16.60;99.90;;;;;;5119250;28;20532;-61
2022/09/07 04:38:38;;;;;;;3.17;2.10;;;16.60;99.90;;;;;;5124333;27;20458;-61
2022/09/07 04:41:08;;;;;;;3.67;2.73;;;16.60;99.90;;;;;;5141445;27;20433;-61
2022/09/07 04:43:36;;;;;;;3.50;2.53;;;16.60;99.90;;;;;;5130095;27;20497;-59
2022/09/07 04:46:07;;;;;;;3.47;2.77;;;16.70;1.00;;;;;;5120639;28;20457;-60
2022/09/07 04:48:35;;;;;;;3.63;2.40;;;16.70;99.90;;;;;;5121405;27;20463;-61
2022/09/07 04:51:08;;;;;;;2.97;2.67;;;16.60;1.00;;;;;;5131887;27;20430;-61
2022/09/07 04:53:38;;;;;;;3.73;2.30;;;16.60;1.00;;;;;;5119190;28;20438;-61
2022/09/07 04:56:06;;;;;;;3.90;3.10;;;16.50;99.90;;;;;;5118909;28;20573;-58
2022/09/07 04:58:36;;;;;;;3.20;2.90;;;16.50;99.90;;;;;;5119785;28;20459;-60
2022/09/07 05:01:05;;;;;;;2.80;2.10;;;16.40;99.90;;;;;;5120461;27;20430;-61
2022/09/07 05:03:34;;;;;;;2.67;2.40;;;16.50;99.90;;;;;;5120194;28;20467;-61
2022/09/07 05:06:01;;;;;;;3.13;2.80;;;16.60;99.90;;;;;;5119425;28;20508;-61
2022/09/07 05:08:28;;;;;;;2.83;2.50;;;16.60;99.90;;;;;;5117975;27;20516;-61
2022/09/07 05:10:57;;;;;;;4.30;3.00;;;16.60;99.90;;;;;;5119241;27;20442;-61
2022/09/07 05:13:29;;;;;;;3.03;2.60;;;16.60;99.90;;;;;;5118188;28;20473;-60
2022/09/07 05:15:56;;;;;;;3.20;2.40;;;16.60;99.90;;;;;;5137515;27;20768;-57
2022/09/07 05:18:25;;;;;;;2.60;2.30;;;16.70;99.90;;;;;;5139742;27;20459;-61
2022/09/07 05:20:52;;;;;;;4.30;2.50;;;16.80;99.90;;;;;;5138399;27;20440;-61
2022/09/07 05:23:22;;;;;;;4.40;2.47;;;16.80;99.90;;;;;;5128223;27;20430;-61
2022/09/07 05:25:49;;;;;;;4.50;2.93;;;16.80;99.90;;;;;;5140446;27;20871;-61
2022/09/07 05:28:18;;;;;;;6.00;2.73;;;16.90;1.00;;;;;;5134551;27;20479;-61
2022/09/07 05:30:45;;;;;;;5.57;2.67;;;16.90;99.90;;;;;;5132345;27;20512;-62
2022/09/07 05:33:14;;;;;;;3.80;3.40;;;17.00;99.90;;;;;;5121539;27;20719;-58
2022/09/07 05:35:41;;;;;;;5.80;3.00;;;17.10;1.00;;;;;;5123357;27;20991;-60
2022/09/07 05:38:09;;;;;;;3.67;3.27;;;17.20;99.90;;;;;;5118709;27;20422;-59
2022/09/07 05:40:36;;;;;;;3.63;2.83;;;17.20;69.30;;;;;;5128390;27;20516;-56
2022/09/07 05:43:05;;;;;;;4.97;3.90;;;17.20;1.00;;;;;;5125144;27;20520;-60
2022/09/07 05:45:34;;;;;;;3.23;2.93;;;17.30;99.90;;;;;;5127376;27;20452;-59
2022/09/07 05:48:01;;;;;;;4.37;3.90;;;17.30;99.90;;;;;;5126556;27;20426;-59
2022/09/07 05:50:29;;;;;;;4.07;2.90;;;17.40;99.90;;;;;;5125883;27;20460;-59
2022/09/07 05:52:56;;;;;;;3.00;2.57;;;17.40;99.90;;;;;;5125812;27;20454;-58
2022/09/07 05:55:28;;;;;;;2.60;2.30;;;17.50;99.90;;;;;;5127718;27;20489;-56
2022/09/07 05:57:55;;;;;;;2.73;2.17;;;17.50;1.00;;;;;;5128011;27;20524;-59
2022/09/07 06:00:23;;;;;;;3.37;2.53;;;17.60;1.00;;;;;;5126999;27;20460;-57
2022/09/07 06:02:54;;;;;;;3.73;2.47;;;17.70;1.00;;;;;;5126010;27;20782;-55
2022/09/07 06:05:24;;;;;;;3.53;2.83;;;17.80;1.00;;;;;;5125645;27;20835;-59
2022/09/07 06:07:51;;;;;;;3.83;2.50;;;17.90;1.00;;;;;;5125304;27;20844;-58
2022/09/07 06:10:22;;;;;;;4.13;2.70;;;18.00;20.90;;;;;;5120575;27;20438;-59
2022/09/07 06:12:49;;;;;;;3.67;2.70;;;18.10;1.00;;;;;;5121728;27;20478;-57
2022/09/07 06:15:17;;;;;;;3.40;2.73;;;18.10;1.00;;;;;;5135237;27;20472;-57
2022/09/07 06:17:44;;;;;;;4.33;3.20;;;18.10;1.00;;;;;;5117255;27;20888;-58
2022/09/07 06:20:13;;;;;;;3.00;2.53;;;18.20;99.90;;;;;;5122342;27;20525;-55
2022/09/07 06:22:40;;;;;;;4.50;3.20;;;18.30;99.90;;;;;;5137053;27;20547;-58
2022/09/07 06:25:11;;;;;;;5.20;2.43;;;18.40;99.90;;;;;;5137778;27;20490;-57
2022/09/07 06:27:38;;;;;;;2.90;2.57;;;18.50;99.90;;;;;;5138384;27;20455;-58
2022/09/07 06:30:07;;;;;;;3.10;2.23;;;18.50;99.90;;;;;;5135976;27;20898;-58
2022/09/07 06:32:37;;;;;;;3.03;2.73;;;18.50;99.90;;;;;;5139351;27;20952;-57
2022/09/07 06:35:08;;;;;;;2.93;2.53;;;18.40;99.90;;;;;;5136787;27;20476;-59
2022/09/07 06:37:38;;;;;;;3.47;3.07;;;18.40;99.90;;;;;;5138861;27;20734;-56
2022/09/07 06:40:06;;;;;;;3.83;2.53;;;18.60;99.90;;;;;;5139445;27;20433;-56
2022/09/07 06:42:34;;;;;;;6.07;3.33;;;18.70;99.90;;;;;;5119949;27;20471;-56
2022/09/07 06:45:01;;;;;;;4.20;2.90;;;18.80;99.90;;;;;;5120370;27;20475;-59
2022/09/07 06:47:28;;;;;;;5.00;2.43;;;19.00;99.90;;;;;;5139366;27;20482;-57
2022/09/07 06:49:56;;;;;;;2.87;2.57;;;19.10;99.90;;;;;;5138965;27;20854;-52
2022/09/07 06:52:23;;;;;;;7.37;2.80;;;19.00;99.90;;;;;;5125290;27;20475;-56
2022/09/07 06:54:52;;;;;;;3.40;2.90;;;19.30;99.90;;;;;;5119326;27;20460;-58
2022/09/07 06:57:19;;;;;;;7.20;3.03;;;19.60;99.90;;;;;;5117705;28;20968;-54
2022/09/07 06:59:49;;;;;;;4.20;2.90;;;19.90;99.90;;;;;;5118639;28;20455;-57
2022/09/07 07:02:16;;;;;;;3.67;2.80;;;20.20;58.90;;;;;;5125618;27;20433;-58
2022/09/07 07:04:45;;;;;;;5.20;2.97;;;20.40;1.00;;;;;;5136332;27;20525;-56
2022/09/07 07:07:13;;;;;;;4.20;2.73;;;20.70;1.00;;;;;;5135693;27;20487;-59
2022/09/07 07:09:41;;;;;;;3.97;3.57;;;20.90;1.00;;;;;;5121728;27;20471;-56
2022/09/07 07:12:10;;;;;;;4.03;2.73;;;21.20;1.00;;;;;;5116408;27;20481;-59
2022/09/07 07:14:39;;;;;;;3.57;3.27;;;21.30;1.00;;;;;;5121844;27;20489;-58
2022/09/07 07:17:07;;;;;;;3.20;2.80;;;21.30;1.00;;;;;;5136946;27;20492;-58
2022/09/07 07:19:36;;;;;;;2.80;2.50;;;21.50;1.00;;;;;;5136995;27;20465;-56
2022/09/07 07:22:03;;;;;;;4.60;3.30;;;21.50;1.00;;;;;;5137635;27;20469;-61
2022/09/07 07:24:35;;;;;;;3.10;2.73;;;21.40;1.00;;;;;;5133877;27;20460;-61
2022/09/07 07:27:02;;;;;;;3.60;3.13;;;21.50;1.00;;;;;;5116013;28;20541;-61
2022/09/07 07:29:31;;;;;;;5.03;2.60;;;21.70;1.00;;;;;;5116630;28;20481;-59
2022/09/07 07:31:58;;;;;;;2.63;2.43;;;22.10;1.00;;;;;;5126924;27;20487;-59
2022/09/07 07:34:31;;;;;;;4.40;3.10;;;22.60;1.00;;;;;;5121132;27;20460;-62
2022/09/07 07:37:00;;;;;;;2.60;2.33;;;22.90;99.90;;;;;;5115613;28;20940;-63
2022/09/07 07:39:27;;;;;;;3.23;2.67;;;23.20;99.90;;;;;;5120696;28;20445;-63
2022/09/07 07:41:56;;;;;;;2.63;2.43;;;23.40;99.90;;;;;;5116205;28;20483;-64
2022/09/07 07:44:23;;;;;;;3.90;3.03;;;23.50;99.90;;;;;;5125372;28;20440;-64
2022/09/07 07:46:55;;;;;;;3.13;2.60;;;23.40;99.90;;;;;;5123326;27;20509;-65
2022/09/07 07:49:22;;;;;;;2.93;2.10;;;23.70;99.90;;;;;;5117188;28;20451;-64
2022/09/07 07:51:50;;;;;;;2.90;2.60;;;24.00;99.90;;;;;;5130752;28;20445;-65
2022/09/07 07:54:19;;;;;;;2.50;2.30;;;24.20;99.90;;;;;;5136203;27;20458;-66
2022/09/07 07:56:46;;;;;;;3.03;2.20;;;24.20;99.90;;;;;;5137508;27;20490;-65
2022/09/07 07:59:19;;;;;;;2.57;2.20;;;24.00;99.90;;;;;;5137447;27;20459;-64
2022/09/07 08:01:46;;;;;;;2.53;2.23;;;23.70;99.90;;;;;;5134941;27;20467;-64
2022/09/07 08:04:15;;;;;;;2.70;2.50;;;23.50;99.90;;;;;;5121368;28;20506;-65
2022/09/07 08:06:45;;;;;;;4.80;2.20;;;23.80;99.90;;;;;;5129243;27;20468;-64
2022/09/07 08:09:13;;;;;;;2.63;2.43;;;23.60;99.90;;;;;;5141522;27;20437;-63
2022/09/07 08:11:43;;;;;;;2.83;2.37;;;23.50;99.90;;;;;;5142297;27;20497;-63
2022/09/07 08:14:13;;;;;;;4.77;3.00;;;24.00;99.90;;;;;;5138073;27;20476;-63
2022/09/07 08:16:42;;;;;;;2.50;2.23;;;24.00;99.90;;;;;;5141949;27;20730;-64
2022/09/07 08:19:10;;;;;;;2.53;2.33;;;23.50;99.90;;;;;;5140036;27;20885;-62
2022/09/07 08:21:38;;;;;;;4.03;2.50;;;22.90;99.90;;;;;;5125701;27;20441;-63
2022/09/07 08:24:06;;;;;;;4.17;3.10;;;23.00;99.90;;;;;;5121472;27;20459;-63
2022/09/07 08:26:36;;;;;;;4.77;3.80;;;22.80;99.90;;;;;;5121039;28;20737;-63
2022/09/07 08:29:04;;;;;;;3.53;2.87;;;22.60;99.90;;;;;;5121048;28;20533;-62
2022/09/07 08:31:33;;;;;;;4.20;3.27;;;22.30;99.90;;;;;;5132438;27;20462;-62
2022/09/07 08:34:04;;;;;;;5.10;3.73;;;22.50;99.90;;;;;;5141743;27;20462;-63
2022/09/07 08:36:31;;;;;;;4.00;3.03;;;23.00;99.90;;;;;;5139324;27;20492;-62
2022/09/07 08:39:01;;;;;;;4.13;3.73;;;23.60;99.90;;;;;;5140294;27;20511;-63
2022/09/07 08:41:52;;;;;;;4.40;3.13;;;23.90;99.90;;;;;;5133113;27;20808;-62
2022/09/07 08:44:24;;;;;;;4.97;3.77;;;24.30;99.90;;;;;;5119468;28;20437;-60
2022/09/07 08:46:56;;;;;;;4.10;3.70;;;24.40;99.90;;;;;;5119769;27;20455;-60
2022/09/07 08:49:32;;;;;;;4.10;3.70;;;24.60;99.90;;;;;;5121127;28;20441;-60
2022/09/07 08:52:03;;;;;;;5.00;4.60;;;24.80;99.90;;;;;;5127703;27;20462;-61
2022/09/07 08:54:33;;;;;;;4.40;4.00;;;25.00;99.90;;;;;;5128807;27;20775;-60
2022/09/07 08:57:09;;;;;;;4.63;4.13;;;24.80;99.90;;;;;;5120390;28;20483;-61
2022/09/07 08:59:42;;;;;;;4.37;3.97;;;24.70;99.90;;;;;;5120271;28;20463;-61
2022/09/07 09:02:14;;;;;;;5.10;4.70;;;25.20;99.90;;;;;;5125017;27;20560;-60
2022/09/07 09:04:42;;;;;;;4.80;4.40;;;25.70;99.90;;;;;;5139676;27;20466;-61
2022/09/07 09:07:16;;;;;;;5.30;4.83;;;26.10;99.90;;;;;;5140962;27;20458;-61
2022/09/07 09:10:08;;;;;;;5.53;5.03;;;26.40;99.90;;;;;;5141033;27;20464;-60
2022/09/07 09:12:55;;;;;;;4.40;4.10;;;26.40;99.90;;;;;;5134033;27;20903;-60
2022/09/07 09:15:31;;;;;;;6.27;4.20;;;26.10;99.90;;;;;;5121347;27;20780;-59
2022/09/07 09:18:06;;;;;;;5.27;4.77;;;25.80;99.90;;;;;;5120707;28;20465;-60
2022/09/07 09:20:45;;;;;;;4.43;4.03;;;26.00;99.90;;;;;;5120593;28;20459;-60
2022/09/07 09:23:15;;;;;;;4.37;3.70;;;26.30;99.90;;;;;;5126006;27;20458;-60
2022/09/07 09:25:52;;;;;;;4.23;3.83;;;26.70;99.90;;;;;;5140866;27;20564;-60
2022/09/07 09:28:21;;;;;;;5.10;4.20;;;27.30;99.90;;;;;;5128041;27;20466;-60
2022/09/07 09:30:48;;;;;;;4.20;3.90;;;27.50;99.90;;;;;;5119658;28;20896;-60
2022/09/07 09:33:19;;;;;;;4.60;3.67;;;27.60;99.90;;;;;;5121963;27;20462;-60
2022/09/07 09:35:48;;;;;;;4.70;4.30;;;27.70;99.90;;;;;;5137323;27;20504;-61
2022/09/07 09:38:34;;;;;;;4.87;4.47;;;27.50;99.90;;;;;;5137153;27;20461;-60
2022/09/07 09:41:06;;;;;;;4.40;4.00;;;27.50;99.90;;;;;;5139287;27;20936;-60
2022/09/07 09:43:46;;;;;;;4.47;4.17;;;27.60;99.90;;;;;;5138636;27;20459;-61
2022/09/07 09:46:25;;;;;;;6.80;3.57;;;27.50;99.90;;;;;;5118826;28;21092;-60
2022/09/07 09:48:56;;;;;;;4.77;4.30;;;27.60;99.90;;;;;;5118404;28;20433;-60
2022/09/07 09:51:26;;;;;;;3.50;3.20;;;28.10;99.90;;;;;;5121062;27;20457;-62
2022/09/07 09:54:01;;;;;;;4.27;3.63;;;28.20;99.90;;;;;;5137597;27;20789;-63
2022/09/07 09:56:41;;;;;;;4.60;4.20;;;28.60;99.90;;;;;;5124292;27;20466;-62
2022/09/07 09:59:21;;;;;;;3.30;3.00;;;28.30;99.90;;;;;;5139652;27;20461;-61
2022/09/07 10:01:50;;;;;;;6.57;3.23;;;28.20;99.90;;;;;;5140258;27;20511;-60
2022/09/07 10:04:35;;;;;;;4.13;3.83;;;28.30;99.90;;;;;;5139738;27;20465;-60
2022/09/07 10:07:10;;;;;;;3.97;3.60;;;27.00;99.90;;;;;;5120649;27;20822;-59
2022/09/07 10:09:40;;;;;;;4.53;4.13;;;27.10;99.90;;;;;;5119589;28;20937;-60
2022/09/07 10:12:26;;;;;;;3.80;3.50;;;27.60;99.90;;;;;;5119718;28;20923;-60
2022/09/07 10:14:55;;;;;;;3.40;3.10;;;27.80;99.90;;;;;;5119347;27;20480;-60
2022/09/07 10:17:28;;;;;;;4.97;3.40;;;28.40;99.90;;;;;;5120521;27;20957;-61
2022/09/07 10:20:01;;;;;;;4.47;3.50;;;28.50;99.90;;;;;;5119190;28;20434;-60
2022/09/07 10:22:35;;;;;;;5.17;3.40;;;27.80;99.90;;;;;;5126015;27;20466;-60
2022/09/07 10:25:04;;;;;;;2.80;2.60;;;27.70;99.90;;;;;;5138602;27;20458;-60
2022/09/07 10:27:35;;;;;;;6.50;3.30;;;28.40;99.90;;;;;;5136743;27;20436;-60
2022/09/07 10:30:16;;;;;;;4.43;2.73;;;28.50;99.90;;;;;;5137784;27;20817;-60
2022/09/07 10:32:57;;;;;;;3.33;3.03;;;29.10;99.90;;;;;;5131955;27;20442;-60
2022/09/07 10:35:29;;;;;;;2.87;2.67;;;29.20;99.90;;;;;;5129446;27;20474;-61
2022/09/07 10:38:09;;;;;;;4.40;3.20;;;28.90;99.90;;;;;;5131343;27;20511;-60
2022/09/07 10:40:44;;;;;;;2.93;2.73;;;28.30;99.90;;;;;;5127716;27;20923;-59
2022/09/07 10:43:21;;;;;;;2.50;2.30;;;28.30;99.90;;;;;;5128696;27;20738;-61
2022/09/07 10:46:07;;;;;;;3.97;2.97;;;28.70;99.90;;;;;;5136081;27;20476;-60
2022/09/07 10:48:43;;;;;;;2.67;2.47;;;28.50;99.90;;;;;;5127304;27;20566;-60
2022/09/07 10:51:19;;;;;;;3.77;2.70;;;28.00;99.90;;;;;;5120578;27;20958;-60
2022/09/07 10:53:53;;;;;;;5.83;2.83;;;27.80;99.90;;;;;;5130953;27;20462;-60
2022/09/07 10:56:28;;;;;;;3.10;2.73;;;27.80;99.90;;;;;;5139166;27;20465;-60
2022/09/07 10:59:07;;;;;;;2.93;2.73;;;27.70;99.90;;;;;;5119053;27;20891;-61
2022/09/07 11:01:52;;;;;;;2.73;2.53;;;27.90;99.90;;;;;;5117716;28;20873;-61
2022/09/07 11:04:37;;;;;;;3.70;2.50;;;28.30;99.90;;;;;;5117619;28;20422;-61
2022/09/07 11:07:17;;;;;;;6.10;2.70;;;28.70;99.90;;;;;;5117493;28;20459;-60
2022/09/07 11:09:54;;;;;;;2.97;2.73;;;28.70;99.90;;;;;;5117992;27;20941;-60
2022/09/07 11:12:29;;;;;;;3.10;2.80;;;28.40;99.90;;;;;;5123297;27;20450;-60
2022/09/07 11:15:14;;;;;;;3.10;2.50;;;27.30;99.90;;;;;;5138046;27;20463;-60
2022/09/07 11:17:45;;;;;;;3.03;2.63;;;26.60;99.90;;;;;;5137114;27;20530;-60
2022/09/07 11:20:22;;;;;;;2.60;2.40;;;27.10;99.90;;;;;;5122362;27;20459;-61
2022/09/07 11:22:56;;;;;;;3.67;3.27;;;27.40;99.90;;;;;;5136473;27;20843;-60
2022/09/07 11:25:29;;;;;;;3.10;2.80;;;27.50;99.90;;;;;;5137790;27;20466;-60
2022/09/07 11:28:02;;;;;;;5.23;2.80;;;27.80;99.90;;;;;;5138274;27;20440;-58
2022/09/07 11:30:35;;;;;;;2.13;2.03;;;27.20;99.90;;;;;;5135438;27;20425;-58
2022/09/07 11:33:11;;;;;;;3.17;2.37;;;26.80;99.90;;;;;;5134261;27;20482;-58
2022/09/07 11:35:46;;;;;;;3.07;2.70;;;26.20;99.90;;;;;;5125247;27;20545;-58
2022/09/07 11:38:21;;;;;;;2.23;2.00;;;25.70;99.90;;;;;;5137813;27;20464;-59
2022/09/07 11:40:59;;;;;;;2.80;2.60;;;25.60;99.90;;;;;;5127790;28;20440;-58
2022/09/07 11:43:31;;;;;;;4.83;2.30;;;25.60;99.90;;;;;;5116839;28;20433;-59
2022/09/07 11:46:04;;;;;;;2.43;2.23;;;25.50;99.90;;;;;;5117806;28;20536;-59
2022/09/07 11:48:41;;;;;;;2.83;2.37;;;26.00;99.90;;;;;;5130486;28;20731;-59
2022/09/07 11:51:15;;;;;;;3.47;3.17;;;26.40;99.90;;;;;;5135482;28;20436;-58
2022/09/07 11:53:48;;;;;;;2.80;2.50;;;26.30;99.90;;;;;;5137596;28;20465;-58
2022/09/07 11:56:21;;;;;;;3.27;2.97;;;25.90;99.90;;;;;;5136881;27;20462;-59
2022/09/07 11:59:19;;;;;;;3.00;2.37;;;25.90;99.90;;;;;;5136703;28;20518;-58
2022/09/07 12:02:04;;;;;;;4.33;2.87;;;27.00;99.90;;;;;;5134878;28;20443;-58
2022/09/07 12:04:48;;;;;;;3.93;2.83;;;26.50;99.90;;;;;;5131287;27;20901;-58
2022/09/07 12:07:40;;;;;;;3.60;3.30;;;26.00;99.90;;;;;;5117026;28;20433;-58
2022/09/07 12:10:32;;;;;;;4.47;2.97;;;26.40;99.90;;;;;;5117813;28;20466;-59
2022/09/07 12:13:35;;;;;;;3.57;3.37;;;27.10;99.90;;;;;;5122340;28;20466;-59
2022/09/07 12:16:10;;;;;;;3.70;3.33;;;27.30;99.90;;;;;;5137568;27;20538;-58
2022/09/07 12:19:12;;;;;;;5.03;3.43;;;27.20;99.90;;;;;;5137692;28;20490;-59
2022/09/07 12:21:44;;;;;;;3.93;3.20;;;27.50;99.90;;;;;;5131916;27;20437;-59
2022/09/07 12:24:39;;;;;;;11.00;4.17;;;27.70;99.90;;;;;;5138071;27;20458;-58
2022/09/07 12:27:16;;;;;;;7.20;2.87;;;27.50;99.90;;;;;;5136562;28;20429;-58
2022/09/07 12:29:45;;;;;;;4.10;3.70;;;27.60;99.90;;;;;;5137911;28;20461;-59
2022/09/07 12:32:13;;;;;;;3.83;3.50;;;27.50;99.90;;;;;;5135805;28;20429;-59
2022/09/07 12:35:27;;;;;;;3.37;2.40;;;28.00;99.90;;;;;;5136420;28;20887;-59
2022/09/07 12:37:56;;;;;;;8.17;3.57;;;28.50;99.90;;;;;;5117131;28;20965;-59
2022/09/07 12:40:58;;;;;;;3.03;2.83;;;29.00;99.90;;;;;;5115715;28;20459;-57
2022/09/07 12:43:55;;;;;;;4.30;3.40;;;28.70;99.90;;;;;;5084766;28;20482;-58
2022/09/07 12:46:59;;;;;;;4.50;3.90;;;28.30;99.90;;;;;;5138070;27;20731;-58
2022/09/07 12:50:14;;;;;;;4.27;3.87;;;28.50;99.90;;;;;;5109007;27;20470;-58
2022/09/07 12:53:23;;;;;;;4.10;3.80;;;28.20;99.90;;;;;;5139010;27;20942;-58
2022/09/07 12:56:25;;;;;;;4.23;3.93;;;28.30;99.90;;;;;;5139306;27;20473;-57
2022/09/07 12:59:08;;;;;;;4.93;4.10;;;28.20;99.90;;;;;;5120144;27;20513;-58
2022/09/07 13:01:48;;;;;;;5.90;4.10;;;27.70;99.90;;;;;;5121053;28;20557;-57
2022/09/07 13:04:57;;;;;;;4.07;3.67;;;27.30;99.90;;;;;;5121506;27;20459;-58
2022/09/07 13:08:04;;;;;;;4.37;4.07;;;27.60;99.90;;;;;;5109825;28;20474;-58
2022/09/07 13:10:34;;;;;;;5.10;4.23;;;27.90;99.90;;;;;;5119697;28;20789;-58
2022/09/07 13:13:04;;;;;;;7.10;4.87;;;27.10;99.90;;;;;;5120674;27;20460;-58
2022/09/07 13:15:39;;;;;;;5.00;4.70;;;26.30;99.90;;;;;;5119533;28;20479;-57
2022/09/07 13:18:11;;;;;;;6.03;5.43;;;26.10;99.90;;;;;;5120593;27;20805;-58
2022/09/07 13:20:39;;;;;;;8.00;4.67;;;26.00;99.90;;;;;;5120201;28;20493;-58